createdAt,value
2017-11-27T00:01:40.962Z,2.33
2017-11-27T00:04:15.282Z,1.58
2017-11-27T00:06:49.712Z,2.67
2017-11-27T00:09:24.082Z,5.40
2017-11-27T00:11:58.435Z,4.43
2017-11-27T00:14:32.762Z,3.28
2017-11-27T00:17:07.281Z,0.90
2017-11-27T00:19:41.729Z,9.70
2017-11-27T00:22:16.226Z,1.98
2017-11-27T00:24:51.149Z,1.05
2017-11-27T00:27:25.593Z,1.17
2017-11-27T00:30:00.152Z,5.78
2017-11-27T00:32:34.697Z,4.65
2017-11-27T00:35:09.117Z,2.35
2017-11-27T00:37:43.565Z,5.65
2017-11-27T00:40:17.954Z,3.28
2017-11-27T00:42:52.299Z,9.43
2017-11-27T00:45:26.722Z,5.25
2017-11-27T00:48:01.066Z,8.30
2017-11-27T00:50:35.530Z,1.27
2017-11-27T00:53:09.856Z,5.15
2017-11-27T00:55:44.196Z,5.50
2017-11-27T00:58:18.592Z,5.75
2017-11-27T01:00:52.922Z,1.50
2017-11-27T01:03:27.326Z,1.60
2017-11-27T01:06:01.655Z,3.00
2017-11-27T01:08:36.096Z,2.80
2017-11-27T01:11:11.254Z,0.90
2017-11-27T01:13:45.608Z,3.67
2017-11-27T01:16:19.938Z,1.33
2017-11-27T01:18:55.165Z,1.67
2017-11-27T01:21:29.592Z,4.82
2017-11-27T01:24:04.096Z,1.95
2017-11-27T01:26:38.497Z,1.45
2017-11-27T01:29:12.962Z,1.85
2017-11-27T01:31:47.301Z,1.35
2017-11-27T01:34:21.770Z,2.67
2017-11-27T01:36:56.321Z,2.95
2017-11-27T01:39:30.799Z,2.25
2017-11-27T01:42:05.153Z,1.90
2017-11-27T01:44:39.619Z,1.15
2017-11-27T01:47:14.162Z,3.85
2017-11-27T01:49:48.656Z,2.53
2017-11-27T01:52:22.970Z,6.97
2017-11-27T01:54:58.175Z,5.28
2017-11-27T01:57:32.661Z,2.00
2017-11-27T02:00:07.248Z,5.60
2017-11-27T02:02:41.601Z,2.45
2017-11-27T02:05:16.065Z,4.82
2017-11-27T02:07:50.524Z,1.45
2017-11-27T02:10:24.970Z,4.10
2017-11-27T02:12:59.334Z,5.55
2017-11-27T02:15:34.509Z,5.37
2017-11-27T02:18:08.875Z,1.90
2017-11-27T02:20:44.008Z,3.50
2017-11-27T02:23:18.580Z,1.30
2017-11-27T02:25:53.075Z,6.93
2017-11-27T02:28:27.456Z,1.50
2017-11-27T02:31:01.871Z,3.00
2017-11-27T02:33:36.417Z,2.05
2017-11-27T02:36:10.884Z,2.22
2017-11-27T02:38:45.219Z,3.35
2017-11-27T02:41:19.685Z,1.58
2017-11-27T02:43:54.017Z,9.27
2017-11-27T02:46:28.535Z,2.30
2017-11-27T02:49:03.050Z,2.87
2017-11-27T02:51:37.380Z,1.75
2017-11-27T02:54:11.871Z,2.75
2017-11-27T02:56:46.399Z,0.95
2017-11-27T02:59:20.861Z,3.45
2017-11-27T03:01:55.334Z,3.00
2017-11-27T03:04:29.810Z,3.12
2017-11-27T03:07:04.265Z,5.37
2017-11-27T03:09:38.614Z,1.70
2017-11-27T03:12:13.058Z,2.25
2017-11-27T03:14:47.560Z,2.20
2017-11-27T03:17:21.876Z,2.65
2017-11-27T03:19:57.006Z,2.05
2017-11-27T03:22:31.425Z,5.75
2017-11-27T03:25:05.801Z,11.43
2017-11-27T03:27:40.241Z,6.22
2017-11-27T03:30:14.702Z,4.45
2017-11-27T03:32:49.173Z,3.90
2017-11-27T03:35:23.506Z,4.32
2017-11-27T03:37:57.824Z,6.62
2017-11-27T03:40:32.279Z,3.78
2017-11-27T03:43:06.757Z,3.45
2017-11-27T03:45:41.211Z,3.90
2017-11-27T03:48:15.644Z,7.28
2017-11-27T03:50:50.749Z,3.37
2017-11-27T03:53:25.921Z,1.35
2017-11-27T03:56:00.413Z,6.40
2017-11-27T03:58:34.829Z,7.05
2017-11-27T04:01:09.307Z,5.87
2017-11-27T04:03:44.400Z,8.43
2017-11-27T04:06:18.903Z,8.85
2017-11-27T04:08:53.466Z,3.47
2017-11-27T04:11:28.030Z,4.72
2017-11-27T04:14:02.461Z,5.15
2017-11-27T04:16:36.813Z,4.72
2017-11-27T04:19:11.197Z,5.25
2017-11-27T04:21:45.696Z,6.25
2017-11-27T04:24:20.142Z,12.45
2017-11-27T04:26:54.448Z,2.58
2017-11-27T04:29:28.820Z,5.60
2017-11-27T04:32:03.141Z,10.25
2017-11-27T04:34:38.323Z,4.05
2017-11-27T04:37:12.787Z,11.45
2017-11-27T04:39:47.181Z,7.97
2017-11-27T04:42:21.726Z,4.05
2017-11-27T04:44:56.172Z,7.30
2017-11-27T04:47:30.477Z,5.72
2017-11-27T04:50:04.846Z,12.27
2017-11-27T04:52:39.268Z,10.00
2017-11-27T04:55:13.715Z,6.78
2017-11-27T04:57:48.118Z,5.30
2017-11-27T05:00:22.534Z,5.62
2017-11-27T05:02:56.941Z,3.62
2017-11-27T05:05:31.309Z,3.90
2017-11-27T05:08:05.790Z,7.45
2017-11-27T05:10:40.954Z,5.85
2017-11-27T05:13:15.417Z,5.47
2017-11-27T05:15:50.581Z,4.30
2017-11-27T05:18:25.053Z,5.37
2017-11-27T05:20:59.401Z,4.93
2017-11-27T05:23:33.814Z,9.07
2017-11-27T05:26:08.291Z,6.57
2017-11-27T05:28:42.781Z,12.02
2017-11-27T05:31:17.249Z,4.15
2017-11-27T05:33:51.760Z,7.18
2017-11-27T05:36:26.264Z,3.72
2017-11-27T05:39:01.454Z,6.45
2017-11-27T05:41:35.832Z,10.27
2017-11-27T05:44:10.165Z,6.37
2017-11-27T05:46:44.758Z,7.55
2017-11-27T05:49:19.282Z,4.03
2017-11-27T05:51:54.411Z,3.62
2017-11-27T05:54:29.069Z,4.05
2017-11-27T05:57:03.533Z,9.27
2017-11-27T05:59:37.989Z,4.53
2017-11-27T06:02:12.423Z,6.93
2017-11-27T06:04:46.889Z,5.53
2017-11-27T06:07:21.325Z,5.03
2017-11-27T06:09:55.683Z,3.47
2017-11-27T06:12:30.149Z,7.35
2017-11-27T06:15:04.608Z,12.10
2017-11-27T06:17:38.997Z,8.68
2017-11-27T06:20:13.496Z,13.77
2017-11-27T06:22:48.756Z,8.77
2017-11-27T06:25:23.250Z,7.32
2017-11-27T06:27:57.949Z,4.07
2017-11-27T06:30:32.468Z,9.40
2017-11-27T06:33:06.812Z,6.78
2017-11-27T06:35:41.270Z,4.70
2017-11-27T06:38:15.677Z,15.25
2017-11-27T06:40:50.105Z,11.85
2017-11-27T06:43:24.464Z,6.43
2017-11-27T06:45:58.937Z,10.00
2017-11-27T06:48:33.384Z,11.70
2017-11-27T06:51:07.894Z,18.62
2017-11-27T06:53:42.385Z,13.57
2017-11-27T06:56:16.751Z,14.80
2017-11-27T06:58:51.073Z,14.48
2017-11-27T07:01:26.643Z,7.87
2017-11-27T07:04:01.158Z,13.95
2017-11-27T07:06:35.540Z,14.23
2017-11-27T07:09:09.928Z,20.92
2017-11-27T07:11:44.512Z,10.38
2017-11-27T07:14:19.723Z,15.48
2017-11-27T07:16:54.892Z,13.62
2017-11-27T07:19:29.354Z,13.65
2017-11-27T07:22:03.677Z,15.45
2017-11-27T07:24:38.097Z,6.43
2017-11-27T07:27:12.559Z,15.65
2017-11-27T07:29:47.812Z,20.40
2017-11-27T07:32:22.193Z,18.75
2017-11-27T07:34:56.849Z,7.87
2017-11-27T07:37:37.602Z,13.82
2017-11-27T07:40:11.993Z,16.75
2017-11-27T07:42:47.109Z,12.77
2017-11-27T07:45:21.553Z,15.23
2017-11-27T07:47:57.244Z,15.13
2017-11-27T07:50:33.089Z,14.23
2017-11-27T07:53:08.316Z,8.43
2017-11-27T07:55:42.764Z,20.55
2017-11-27T07:58:17.302Z,11.25
2017-11-27T08:00:51.773Z,15.00
2017-11-27T08:03:26.282Z,14.30
2017-11-27T08:06:00.741Z,12.27
2017-11-27T08:08:35.153Z,5.75
2017-11-27T08:11:09.506Z,25.45
2017-11-27T08:13:43.972Z,24.42
2017-11-27T08:16:18.385Z,22.77
2017-11-27T08:18:52.739Z,10.18
2017-11-27T08:21:27.199Z,18.55
2017-11-27T08:24:01.592Z,8.30
2017-11-27T08:26:36.684Z,17.95
2017-11-27T08:29:11.142Z,8.40
2017-11-27T08:31:45.538Z,21.33
2017-11-27T08:34:19.981Z,20.20
2017-11-27T08:36:55.179Z,14.90
2017-11-27T08:39:29.621Z,26.02
2017-11-27T08:42:04.003Z,20.33
2017-11-27T08:44:38.528Z,11.98
2017-11-27T08:47:13.777Z,12.20
2017-11-27T08:49:48.098Z,11.10
2017-11-27T08:52:22.418Z,26.40
2017-11-27T08:54:57.513Z,25.75
2017-11-27T08:57:31.994Z,17.27
2017-11-27T09:00:06.467Z,23.38
2017-11-27T09:02:40.796Z,14.27
2017-11-27T09:05:15.197Z,15.38
2017-11-27T09:07:50.440Z,22.70
2017-11-27T09:10:25.683Z,16.58
2017-11-27T09:13:00.138Z,8.63
2017-11-27T09:15:34.663Z,18.98
2017-11-27T09:18:09.150Z,22.02
2017-11-27T09:20:43.778Z,26.87
2017-11-27T09:23:18.153Z,18.60
2017-11-27T09:25:52.581Z,19.42
2017-11-27T09:28:27.659Z,19.17
2017-11-27T09:31:01.958Z,19.83
2017-11-27T09:33:36.485Z,22.27
2017-11-27T09:36:10.979Z,20.85
2017-11-27T09:38:45.437Z,20.80
2017-11-27T09:41:19.787Z,24.60
2017-11-27T09:43:54.339Z,15.18
2017-11-27T09:46:28.688Z,18.45
2017-11-27T09:49:03.250Z,15.68
2017-11-27T09:51:37.689Z,18.77
2017-11-27T09:54:12.130Z,17.90
2017-11-27T09:56:47.277Z,23.90
2017-11-27T09:59:21.639Z,18.12
2017-11-27T10:01:56.863Z,21.65
2017-11-27T10:04:31.285Z,7.10
2017-11-27T10:07:05.815Z,17.73
2017-11-27T10:09:40.110Z,16.37
2017-11-27T10:12:15.323Z,9.15
2017-11-27T10:14:49.626Z,20.05
2017-11-27T10:17:24.172Z,9.60
2017-11-27T10:19:58.585Z,23.90
2017-11-27T10:22:32.952Z,19.45
2017-11-27T10:25:07.402Z,12.43
2017-11-27T10:27:41.818Z,15.68
2017-11-27T10:30:16.338Z,12.27
2017-11-27T10:32:50.670Z,6.85
2017-11-27T10:35:25.336Z,17.30
2017-11-27T10:37:59.659Z,6.75
2017-11-27T10:40:34.098Z,13.82
2017-11-27T10:43:08.549Z,21.67
2017-11-27T10:45:42.908Z,16.20
2017-11-27T10:48:18.092Z,13.02
2017-11-27T10:50:52.657Z,5.78
2017-11-27T10:53:27.169Z,12.80
2017-11-27T10:56:01.698Z,15.27
2017-11-27T10:58:36.923Z,16.73
2017-11-27T11:01:11.256Z,16.58
2017-11-27T11:03:46.619Z,11.15
2017-11-27T11:06:21.071Z,15.73
2017-11-27T11:08:55.467Z,15.00
2017-11-27T11:11:29.907Z,10.77
2017-11-27T11:14:05.428Z,10.43
2017-11-27T11:16:39.810Z,16.42
2017-11-27T11:19:14.264Z,10.15
2017-11-27T11:21:48.692Z,11.18
2017-11-27T11:24:24.002Z,9.20
2017-11-27T11:26:59.094Z,10.05
2017-11-27T11:29:33.482Z,8.95
2017-11-27T11:32:07.916Z,13.57
2017-11-27T11:34:42.701Z,8.55
2017-11-27T11:37:17.375Z,12.70
2017-11-27T11:39:52.025Z,10.25
2017-11-27T11:42:26.536Z,10.45
2017-11-27T11:45:00.981Z,7.25
2017-11-27T11:47:35.418Z,14.18
2017-11-27T11:50:09.876Z,7.43
2017-11-27T11:52:44.384Z,8.63
2017-11-27T11:55:18.749Z,8.60
2017-11-27T11:57:53.316Z,9.40
2017-11-27T12:00:27.711Z,8.23
2017-11-27T12:03:02.112Z,8.07
2017-11-27T12:05:36.468Z,5.82
2017-11-27T12:08:10.899Z,6.37
2017-11-27T12:10:46.163Z,9.27
2017-11-27T12:13:20.505Z,4.25
2017-11-27T12:15:54.829Z,7.43
2017-11-27T12:18:29.262Z,7.72
2017-11-27T12:21:03.606Z,5.35
2017-11-27T12:23:38.690Z,5.95
2017-11-27T12:26:13.161Z,6.90
2017-11-27T12:28:47.630Z,5.35
2017-11-27T12:31:22.186Z,5.97
2017-11-27T12:33:56.707Z,6.82
2017-11-27T12:36:31.163Z,8.73
2017-11-27T12:39:06.257Z,6.85
2017-11-27T12:41:40.701Z,8.90
2017-11-27T12:44:15.193Z,5.57
2017-11-27T12:46:49.713Z,8.20
2017-11-27T12:49:24.926Z,4.47
2017-11-27T12:52:00.190Z,5.45
2017-11-27T12:54:35.329Z,6.32
2017-11-27T12:57:09.827Z,3.55
2017-11-27T12:59:44.149Z,13.10
2017-11-27T13:02:18.495Z,3.00
2017-11-27T13:04:53.081Z,4.07
2017-11-27T13:07:27.648Z,3.25
2017-11-27T13:10:02.154Z,3.70
2017-11-27T13:12:36.486Z,11.50
2017-11-27T13:15:10.808Z,4.68
2017-11-27T13:17:45.173Z,2.28
2017-11-27T13:20:19.609Z,3.37
2017-11-27T13:22:54.140Z,3.95
2017-11-27T13:25:28.507Z,3.28
2017-11-27T13:28:02.843Z,3.75
2017-11-27T13:30:38.117Z,4.00
2017-11-27T13:33:12.441Z,2.70
2017-11-27T13:35:46.965Z,1.73
2017-11-27T13:38:21.472Z,4.07
2017-11-27T13:40:55.920Z,2.72
2017-11-27T13:43:30.413Z,5.12
2017-11-27T13:46:04.882Z,6.43
2017-11-27T13:48:39.318Z,4.32
2017-11-27T13:51:14.386Z,2.95
2017-11-27T13:53:48.737Z,5.90
2017-11-27T13:56:23.145Z,3.80
2017-11-27T13:58:57.666Z,6.40
2017-11-27T14:01:32.185Z,7.20
2017-11-27T14:04:06.697Z,5.72
2017-11-27T14:06:41.152Z,3.78
2017-11-27T14:09:15.600Z,6.65
2017-11-27T14:11:50.057Z,4.85
2017-11-27T14:14:24.532Z,5.15
2017-11-27T14:16:59.062Z,8.70
2017-11-27T14:19:34.308Z,2.72
2017-11-27T14:22:08.665Z,6.18
2017-11-27T14:24:42.957Z,5.95
2017-11-27T14:27:17.347Z,12.02
2017-11-27T14:29:51.733Z,11.35
2017-11-27T14:32:26.306Z,4.25
2017-11-27T14:35:00.805Z,5.15
2017-11-27T14:37:35.140Z,6.37
2017-11-27T14:40:09.561Z,4.47
2017-11-27T14:42:44.744Z,8.57
2017-11-27T14:45:19.147Z,9.35
2017-11-27T14:47:53.558Z,6.30
2017-11-27T14:50:27.957Z,4.12
2017-11-27T14:53:02.276Z,5.43
2017-11-27T14:55:37.515Z,4.15
2017-11-27T14:58:11.947Z,4.60
2017-11-27T15:00:46.445Z,4.20
2017-11-27T15:03:20.835Z,2.47
2017-11-27T15:05:55.231Z,7.75
2017-11-27T15:08:29.745Z,5.40
2017-11-27T15:11:04.775Z,3.45
2017-11-27T15:13:39.181Z,5.93
2017-11-27T15:16:13.513Z,3.83
2017-11-27T15:18:47.978Z,9.50
2017-11-27T15:21:22.484Z,7.10
2017-11-27T15:23:57.610Z,5.37
2017-11-27T15:26:32.708Z,6.82
2017-11-27T15:29:07.103Z,7.60
2017-11-27T15:31:41.522Z,5.87
2017-11-27T15:34:16.501Z,9.45
2017-11-27T15:36:50.797Z,9.90
2017-11-27T15:39:26.002Z,6.32
2017-11-27T15:42:00.389Z,14.15
2017-11-27T15:44:35.588Z,11.35
2017-11-27T15:47:10.070Z,12.05
2017-11-27T15:49:44.511Z,10.23
2017-11-27T15:52:18.912Z,8.73
2017-11-27T15:54:53.309Z,17.37
2017-11-27T15:57:27.856Z,8.00
2017-11-27T16:00:02.194Z,9.50
2017-11-27T16:02:36.722Z,19.58
2017-11-27T16:05:11.143Z,10.80
2017-11-27T16:07:45.472Z,13.80
2017-11-27T16:10:19.914Z,16.00
2017-11-27T16:12:54.242Z,11.38
2017-11-27T16:15:28.587Z,10.40
2017-11-27T16:18:03.350Z,12.40
2017-11-27T16:20:37.829Z,11.02
2017-11-27T16:23:12.260Z,12.75
2017-11-27T16:25:46.777Z,7.55
2017-11-27T16:28:21.251Z,14.02
2017-11-27T16:30:55.623Z,12.77
2017-11-27T16:33:30.185Z,7.80
2017-11-27T16:36:04.541Z,8.48
2017-11-27T16:38:39.079Z,3.60
2017-11-27T16:41:13.534Z,7.70
2017-11-27T16:43:48.022Z,7.47
2017-11-27T16:46:22.441Z,6.87
2017-11-27T16:48:56.919Z,11.27
2017-11-27T16:51:32.039Z,8.15
2017-11-27T16:54:06.399Z,10.50
2017-11-27T16:56:41.522Z,11.00
2017-11-27T16:59:15.871Z,12.60
2017-11-27T17:01:50.227Z,13.75
2017-11-27T17:04:24.777Z,14.10
2017-11-27T17:06:59.277Z,10.85
2017-11-27T17:09:33.740Z,15.05
2017-11-27T17:12:08.173Z,16.12
2017-11-27T17:14:42.682Z,14.98
2017-11-27T17:17:17.172Z,11.20
2017-11-27T17:19:51.657Z,13.18
2017-11-27T17:22:27.021Z,14.73
2017-11-27T17:25:01.506Z,13.40
2017-11-27T17:27:35.968Z,12.15
2017-11-27T17:30:10.268Z,12.80
2017-11-27T17:32:44.803Z,15.65
2017-11-27T17:35:19.320Z,13.70
2017-11-27T17:37:53.837Z,16.35
2017-11-27T17:40:28.211Z,13.57
2017-11-27T17:43:02.536Z,14.55
2017-11-27T17:45:36.901Z,15.73
2017-11-27T17:48:11.473Z,21.58
2017-11-27T17:50:45.810Z,20.23
2017-11-27T17:53:20.274Z,13.05
2017-11-27T17:55:54.825Z,19.73
2017-11-27T17:58:29.192Z,14.07
2017-11-27T18:01:03.624Z,9.07
2017-11-27T18:03:38.137Z,11.20
2017-11-27T18:06:12.671Z,8.52
2017-11-27T18:08:47.169Z,15.27
2017-11-27T18:11:21.628Z,12.25
2017-11-27T18:13:56.141Z,13.32
2017-11-27T18:16:30.527Z,11.82
2017-11-27T18:19:05.055Z,9.10
2017-11-27T18:21:39.502Z,12.05
2017-11-27T18:24:14.004Z,7.75
2017-11-27T18:26:48.399Z,13.07
2017-11-27T18:29:23.768Z,8.32
2017-11-27T18:31:59.221Z,5.25
2017-11-27T18:34:33.663Z,7.37
2017-11-27T18:37:08.190Z,8.65
2017-11-27T18:39:43.738Z,11.75
2017-11-27T18:42:18.067Z,13.00
2017-11-27T18:44:52.550Z,8.40
2017-11-27T18:47:26.865Z,11.88
2017-11-27T18:50:01.750Z,13.43
2017-11-27T18:52:36.053Z,7.37
2017-11-27T18:55:10.482Z,18.50
2017-11-27T18:57:45.386Z,15.73
2017-11-27T19:00:19.746Z,17.17
2017-11-27T19:02:54.210Z,12.90
2017-11-27T19:05:28.706Z,12.90
2017-11-27T19:08:03.178Z,5.87
2017-11-27T19:10:37.484Z,19.12
2017-11-27T19:13:12.185Z,16.02
2017-11-27T19:15:46.714Z,8.77
2017-11-27T19:18:21.289Z,12.95
2017-11-27T19:20:55.751Z,7.12
2017-11-27T19:23:31.077Z,6.90
2017-11-27T19:26:05.530Z,6.37
2017-11-27T19:28:39.965Z,7.18
2017-11-27T19:31:14.432Z,12.37
2017-11-27T19:33:48.880Z,8.85
2017-11-27T19:36:23.310Z,13.32
2017-11-27T19:38:57.593Z,9.65
2017-11-27T19:41:31.952Z,7.50
2017-11-27T19:44:07.131Z,9.52
2017-11-27T19:46:41.752Z,13.82
2017-11-27T19:49:16.173Z,8.50
2017-11-27T19:51:50.480Z,14.93
2017-11-27T19:54:25.009Z,14.77
2017-11-27T19:56:59.309Z,14.80
2017-11-27T19:59:33.723Z,12.30
2017-11-27T20:02:08.122Z,5.95
2017-11-27T20:04:42.469Z,7.00
2017-11-27T20:07:17.008Z,13.23
2017-11-27T20:09:51.318Z,11.75
2017-11-27T20:12:25.840Z,4.78
2017-11-27T20:15:00.186Z,11.93
2017-11-27T20:17:34.740Z,10.48
2017-11-27T20:20:09.192Z,15.10
2017-11-27T20:22:44.612Z,1.77
2017-11-27T20:25:18.937Z,6.50
2017-11-27T20:27:53.238Z,3.55
2017-11-27T20:30:27.710Z,6.35
2017-11-27T20:33:02.951Z,11.07
2017-11-27T20:35:37.510Z,7.07
2017-11-27T20:38:11.906Z,6.00
2017-11-27T20:40:46.286Z,4.53
2017-11-27T20:43:20.745Z,2.62
2017-11-27T20:45:56.098Z,4.15
2017-11-27T20:48:31.188Z,2.30
2017-11-27T20:51:05.670Z,7.53
2017-11-27T20:53:40.860Z,3.28
2017-11-27T20:56:15.364Z,1.70
2017-11-27T20:58:49.757Z,2.40
2017-11-27T21:01:24.314Z,3.62
2017-11-27T21:03:58.654Z,2.55
2017-11-27T21:06:33.108Z,1.05
2017-11-27T21:09:07.470Z,1.80
2017-11-27T21:11:41.901Z,1.83
2017-11-27T21:14:16.323Z,1.27
2017-11-27T21:16:52.509Z,3.17
2017-11-27T21:19:26.882Z,4.78
2017-11-27T21:22:01.389Z,2.83
2017-11-27T21:24:35.891Z,4.43
2017-11-27T21:27:10.252Z,2.28
2017-11-27T21:29:44.806Z,1.42
2017-11-27T21:32:19.160Z,2.50
2017-11-27T21:34:54.163Z,2.25
2017-11-27T21:37:28.931Z,3.75
2017-11-27T21:40:03.299Z,1.80
2017-11-27T21:42:37.707Z,3.00
2017-11-27T21:45:12.849Z,0.65
2017-11-27T21:47:47.141Z,1.75
2017-11-27T21:50:21.679Z,2.05
2017-11-27T21:52:56.193Z,1.70
2017-11-27T21:55:30.763Z,0.85
2017-11-27T21:58:05.276Z,2.60
2017-11-27T22:00:40.557Z,10.40
2017-11-27T22:03:15.135Z,1.10
2017-11-27T22:05:49.573Z,5.93
2017-11-27T22:08:24.031Z,2.30
2017-11-27T22:10:58.460Z,2.75
2017-11-27T22:13:33.481Z,1.85
2017-11-27T22:16:07.874Z,2.67
2017-11-27T22:18:42.353Z,1.05
2017-11-27T22:21:16.823Z,2.87
2017-11-27T22:23:51.233Z,1.87
2017-11-27T22:26:25.726Z,4.03
2017-11-27T22:29:00.116Z,1.77
2017-11-27T22:31:34.544Z,1.30
2017-11-27T22:34:09.037Z,3.58
2017-11-27T22:36:44.101Z,2.72
2017-11-27T22:39:18.388Z,1.90
2017-11-27T22:41:52.924Z,1.10
2017-11-27T22:44:27.373Z,1.17
2017-11-27T22:47:01.772Z,3.12
2017-11-27T22:49:36.200Z,2.15
2017-11-27T22:52:10.734Z,1.73
2017-11-27T22:54:45.037Z,1.15
2017-11-27T22:57:19.574Z,0.60
2017-11-27T22:59:54.084Z,1.50
2017-11-27T23:02:28.609Z,3.78
2017-11-27T23:05:03.767Z,2.87
2017-11-27T23:07:38.249Z,1.85
2017-11-27T23:10:12.687Z,3.00
2017-11-27T23:12:47.120Z,2.42
2017-11-27T23:15:21.415Z,6.57
2017-11-27T23:17:55.922Z,3.55
2017-11-27T23:20:30.295Z,6.68
2017-11-27T23:23:04.787Z,1.00
2017-11-27T23:25:39.309Z,2.45
2017-11-27T23:28:13.813Z,1.27
2017-11-27T23:30:49.098Z,2.75
2017-11-27T23:33:23.593Z,1.60
2017-11-27T23:39:02.846Z,1.92
2017-11-27T23:41:37.262Z,2.08
2017-11-27T23:44:11.589Z,8.07
2017-11-27T23:46:46.050Z,2.95
2017-11-27T23:49:20.419Z,3.60
2017-11-27T23:51:54.701Z,6.22
2017-11-27T23:54:29.169Z,2.50
2017-11-27T23:57:03.659Z,2.53
2017-11-27T23:59:38.053Z,2.30
